createdAt,value
2018-04-27T04:27:19.743Z,100
2018-04-27T04:27:39.918Z,100
2018-04-27T04:28:00.089Z,100
2018-04-27T04:28:20.240Z,100
2018-04-27T04:28:40.414Z,100
2018-04-27T04:29:00.573Z,100
2018-04-27T04:34:32.855Z,100
2018-04-27T04:34:53.016Z,100
2018-04-27T04:35:13.216Z,100
2018-04-27T04:37:01.227Z,100
2018-04-27T04:37:21.380Z,100
2018-04-27T04:37:41.559Z,100
2018-04-27T04:38:01.723Z,100
2018-04-27T04:38:21.993Z,100
2018-04-27T04:38:42.162Z,100
2018-04-27T04:39:02.327Z,100
2018-04-27T04:40:25.714Z,100
2018-04-27T04:40:45.905Z,100
2018-04-27T04:41:06.107Z,100
2018-04-27T04:41:26.307Z,100
2018-04-27T04:41:46.463Z,100
2018-04-27T04:42:06.632Z,100
2018-04-27T04:42:26.788Z,100
2018-04-27T04:42:46.934Z,100
2018-04-27T04:43:07.096Z,100
2018-04-27T04:43:27.252Z,100
2018-04-27T04:43:47.435Z,100
2018-04-27T04:44:07.609Z,100
2018-04-27T04:44:27.763Z,100
2018-04-27T04:44:47.912Z,100
2018-04-27T04:45:08.211Z,100
2018-04-27T04:45:28.329Z,100
2018-04-27T04:45:48.511Z,100
2018-04-27T04:46:08.686Z,100
2018-04-27T04:46:28.870Z,100
2018-04-27T04:46:49.032Z,100
2018-04-27T04:47:09.215Z,100
2018-04-27T04:47:29.359Z,100
2018-04-27T04:47:49.534Z,100
2018-04-27T04:48:09.704Z,100
2018-04-27T04:48:29.892Z,100
2018-04-27T04:48:50.089Z,100
2018-04-27T04:49:10.245Z,100
2018-04-27T04:49:30.484Z,100
2018-04-27T04:49:50.671Z,100
2018-04-27T04:50:10.839Z,100
2018-04-27T04:50:31.003Z,100
2018-04-27T04:50:51.184Z,100
2018-04-27T04:51:11.360Z,100
2018-04-27T04:51:31.515Z,100
2018-04-27T04:51:51.688Z,100
2018-04-27T04:52:11.860Z,100
2018-04-27T04:52:32.183Z,100
2018-04-27T04:52:52.332Z,100
2018-04-27T04:53:12.486Z,100
2018-04-27T04:53:32.673Z,100
2018-04-27T04:53:52.813Z,100
2018-04-27T04:54:12.969Z,100
2018-04-27T04:54:33.105Z,100
2018-04-27T04:54:53.274Z,100
2018-04-27T04:55:13.438Z,100
2018-04-27T04:55:33.628Z,100
2018-04-27T04:55:53.803Z,100
2018-04-27T04:56:14.045Z,100
2018-04-27T04:56:34.184Z,100
2018-04-27T04:56:54.349Z,100
2018-04-27T04:57:14.504Z,100
2018-04-27T04:57:34.686Z,100
2018-04-27T04:57:54.879Z,100
2018-04-27T04:58:15.046Z,100
2018-04-27T04:58:35.203Z,100
2018-04-27T04:58:55.374Z,100
2018-04-27T04:59:15.585Z,100
2018-04-27T04:59:35.749Z,100
2018-04-27T04:59:55.912Z,100
2018-04-27T05:00:16.137Z,100
2018-04-27T05:00:36.353Z,100
2018-04-27T05:00:56.536Z,100
2018-04-27T05:01:16.737Z,100
2018-04-27T05:01:36.905Z,100
2018-04-27T05:01:57.055Z,100
2018-04-27T05:02:17.217Z,100
2018-04-27T05:02:37.371Z,100
2018-04-27T05:02:57.678Z,100
2018-04-27T05:03:17.806Z,100
2018-04-27T05:03:37.990Z,100
2018-04-27T05:03:58.170Z,100
2018-04-27T05:04:18.354Z,100
2018-04-27T05:04:38.526Z,100
2018-04-27T05:04:58.694Z,100
2018-04-27T05:05:18.853Z,100
2018-04-27T05:05:39.023Z,100
2018-04-27T05:05:59.176Z,100
2018-04-27T05:06:19.358Z,100
2018-04-27T05:06:39.521Z,100
2018-04-27T05:06:59.692Z,100
2018-04-27T05:07:19.873Z,100
2018-04-27T05:07:40.013Z,100
2018-04-27T05:08:00.196Z,100
2018-04-27T05:08:20.365Z,100
2018-04-27T05:08:40.543Z,100
2018-04-27T05:09:00.719Z,100
2018-04-27T05:09:20.909Z,100
2018-04-27T05:09:41.064Z,100
2018-04-27T05:10:01.201Z,100
2018-04-27T05:10:21.387Z,100
2018-04-27T05:10:41.596Z,100
2018-04-27T05:11:01.854Z,100
2018-04-27T05:11:22.029Z,100
2018-04-27T05:11:42.211Z,100
2018-04-27T05:12:02.393Z,100
2018-04-27T05:12:22.564Z,100
2018-04-27T05:12:42.742Z,100
2018-04-27T05:13:02.918Z,100
2018-04-27T05:13:23.100Z,100
2018-04-27T05:13:43.278Z,100
2018-04-27T05:14:03.436Z,100
2018-04-27T05:14:23.614Z,100
2018-04-27T05:14:43.773Z,100
2018-04-27T05:15:03.952Z,100
2018-04-27T05:15:24.119Z,100
2018-04-27T05:15:44.304Z,100
2018-04-27T05:16:04.493Z,100
2018-04-27T05:16:24.666Z,100
2018-04-27T05:16:44.832Z,100
2018-04-27T05:17:05.004Z,100
2018-04-27T05:17:25.219Z,100
2018-04-27T05:17:45.374Z,100
2018-04-27T05:18:05.553Z,100
2018-04-27T05:18:25.721Z,100
2018-04-27T05:18:45.883Z,99.9
2018-04-27T05:19:06.051Z,99.7
2018-04-27T05:19:26.227Z,100
2018-04-27T05:19:46.467Z,99.9
2018-04-27T05:20:06.683Z,100
2018-04-27T05:20:26.890Z,100
2018-04-27T05:20:47.051Z,99.7
2018-04-27T05:21:07.231Z,99.6
2018-04-27T05:21:27.440Z,99.8
2018-04-27T05:21:47.600Z,99.3
2018-04-27T05:22:07.818Z,99.4
2018-04-27T05:22:28.045Z,99.4
2018-04-27T05:22:48.174Z,99.2
2018-04-27T05:23:08.334Z,99.2
2018-04-27T05:23:28.528Z,99.6
2018-04-27T05:23:48.690Z,99.1
2018-04-27T05:24:08.914Z,99.8
2018-04-27T05:24:29.063Z,99.8
2018-04-27T05:24:49.262Z,99.4
2018-04-27T05:25:09.444Z,99.6
2018-04-27T05:25:29.647Z,99.4
2018-04-27T05:25:49.830Z,99.2
2018-04-27T05:26:09.990Z,100
2018-04-27T05:26:30.155Z,99.7
2018-04-27T05:26:50.318Z,100
2018-04-27T05:27:10.481Z,99.8
2018-04-27T05:27:30.648Z,100
2018-04-27T05:27:50.853Z,99.4
2018-04-27T05:28:11.042Z,99.6
2018-04-27T05:28:31.226Z,99.8
2018-04-27T05:28:51.386Z,99
2018-04-27T05:29:11.552Z,98.8
2018-04-27T05:29:31.714Z,99.3
2018-04-27T05:29:51.900Z,99.4
2018-04-27T05:30:12.067Z,99.6
2018-04-27T05:30:32.230Z,99.6
2018-04-27T05:30:52.406Z,99.3
2018-04-27T05:31:12.588Z,99.4
2018-04-27T05:31:32.756Z,99.4
2018-04-27T05:31:52.935Z,100
2018-04-27T05:32:13.124Z,99.8
2018-04-27T05:32:33.300Z,100
2018-04-27T05:32:53.469Z,100
2018-04-27T05:33:13.655Z,100
2018-04-27T05:33:33.817Z,100
2018-04-27T05:33:53.982Z,100
2018-04-27T05:34:14.151Z,100
2018-04-27T05:34:34.316Z,99.8
2018-04-27T05:34:54.484Z,99.7
2018-04-27T05:35:14.661Z,99.7
2018-04-27T05:35:34.832Z,99.6
2018-04-27T05:35:54.988Z,99.7
2018-04-27T05:36:15.153Z,99.9
2018-04-27T05:36:35.322Z,99.9
2018-04-27T05:36:55.512Z,99.9
2018-04-27T05:37:15.698Z,99.4
2018-04-27T05:37:35.874Z,99.4
2018-04-27T05:37:56.056Z,99.8
2018-04-27T05:38:16.253Z,99.2
2018-04-27T05:38:36.407Z,99.6
2018-04-27T05:38:56.592Z,100
2018-04-27T05:39:16.777Z,100
2018-04-27T05:39:36.950Z,100
2018-04-27T05:39:57.115Z,100
2018-04-27T05:40:17.292Z,100
2018-04-27T05:40:37.464Z,100
2018-04-27T05:40:57.641Z,100
2018-04-27T05:41:17.800Z,100
2018-04-27T05:41:37.932Z,99.9
2018-04-27T05:41:58.116Z,99.6
2018-04-27T05:42:18.303Z,99.4
2018-04-27T05:42:38.468Z,99.4
2018-04-27T05:42:58.623Z,99.3
2018-04-27T05:43:18.796Z,99.2
2018-04-27T05:43:38.949Z,99.7
2018-04-27T05:43:59.175Z,99.3
2018-04-27T05:44:19.344Z,99.4
2018-04-27T05:44:39.530Z,99.4
2018-04-27T05:44:59.716Z,99.7
2018-04-27T05:45:19.879Z,99.7
2018-04-27T05:45:40.047Z,99.8
2018-04-27T05:46:00.207Z,100
2018-04-27T05:46:20.384Z,100
2018-04-27T05:46:40.562Z,100
2018-04-27T05:47:00.720Z,100
2018-04-27T05:47:20.882Z,100
2018-04-27T05:47:41.065Z,100
2018-04-27T05:48:01.254Z,99.9
2018-04-27T05:48:21.572Z,100
2018-04-27T05:48:41.690Z,99.5
2018-04-27T05:49:01.896Z,99.3
2018-04-27T05:49:22.045Z,99.5
2018-04-27T05:49:42.201Z,99.3
2018-04-27T05:50:02.380Z,99.8
2018-04-27T05:50:22.543Z,99.4
2018-04-27T05:50:42.719Z,99.5
2018-04-27T05:51:02.896Z,99.4
2018-04-27T05:51:23.055Z,99.4
2018-04-27T05:51:43.217Z,99.9
2018-04-27T05:52:03.368Z,99.7
2018-04-27T05:52:23.541Z,99.7
2018-04-27T05:52:43.706Z,99.5
2018-04-27T05:53:03.908Z,99.5
2018-04-27T05:53:24.076Z,99.3
2018-04-27T05:53:44.227Z,99.3
2018-04-27T05:54:04.386Z,99.1
2018-04-27T05:54:24.552Z,98.6
2018-04-27T05:54:44.736Z,99.3
2018-04-27T05:55:04.904Z,99.1
2018-04-27T05:55:25.047Z,99.2
2018-04-27T05:55:45.197Z,99.4
2018-04-27T05:56:05.387Z,99.4
2018-04-27T05:56:25.625Z,99.5
2018-04-27T05:56:45.813Z,99.5
2018-04-27T05:57:06.015Z,99.5
2018-04-27T05:57:26.199Z,99.7
2018-04-27T05:57:46.383Z,99.5
2018-04-27T05:58:06.554Z,99.6
2018-04-27T05:58:26.710Z,99.4
2018-04-27T05:58:46.874Z,98.7
2018-04-27T05:59:07.040Z,99.1
2018-04-27T05:59:27.219Z,99.1
2018-04-27T05:59:47.368Z,99.1
2018-04-27T06:00:07.532Z,98.8
2018-04-27T06:00:27.754Z,99.2
2018-04-27T06:00:47.904Z,99.1
2018-04-27T06:01:08.105Z,98.9
2018-04-27T06:01:28.276Z,99.2
2018-04-27T06:01:48.449Z,99.2
2018-04-27T06:02:08.605Z,99.7
2018-04-27T06:02:28.768Z,99.6
2018-04-27T06:02:48.943Z,99.3
2018-04-27T06:03:09.105Z,99.4
2018-04-27T06:03:29.267Z,99.9
2018-04-27T06:03:49.445Z,100
2018-04-27T06:04:09.627Z,99.9
2018-04-27T06:04:29.798Z,99.7
2018-04-27T06:04:50.031Z,99.9
2018-04-27T06:05:10.229Z,100
2018-04-27T06:05:30.413Z,100
2018-04-27T06:05:50.547Z,99.7
2018-04-27T06:06:10.720Z,99.7
2018-04-27T06:06:30.888Z,99.4
2018-04-27T06:06:51.061Z,99.5
2018-04-27T06:07:11.252Z,99.3
2018-04-27T06:07:31.422Z,98.9
2018-04-27T06:07:51.607Z,99.1
2018-04-27T06:08:11.787Z,98.4
2018-04-27T06:08:31.973Z,98.9
2018-04-27T06:08:52.129Z,98.5
2018-04-27T06:09:12.298Z,98.4
2018-04-27T06:09:32.484Z,98.6
2018-04-27T06:09:52.650Z,98.8
2018-04-27T06:10:12.914Z,98.6
2018-04-27T06:10:33.027Z,98.8
2018-04-27T06:10:53.208Z,98.7
2018-04-27T06:11:13.370Z,98.8
2018-04-27T06:11:33.536Z,98.7
2018-04-27T06:11:53.688Z,98.6
2018-04-27T06:12:13.855Z,98.5
2018-04-27T06:12:34.021Z,98.5
2018-04-27T06:12:54.209Z,98.4
2018-04-27T06:13:14.376Z,98.7
2018-04-27T06:13:34.572Z,98.5
2018-04-27T06:13:54.776Z,98.7
2018-04-27T06:14:14.948Z,99
2018-04-27T06:14:35.142Z,98.4
2018-04-27T06:14:55.317Z,98.9
2018-04-27T06:15:15.490Z,98.5
2018-04-27T06:15:35.652Z,98.3
2018-04-27T06:15:55.826Z,98.4
2018-04-27T06:16:16.031Z,98.9
2018-04-27T06:16:36.226Z,98.8
2018-04-27T06:16:56.393Z,98.7
2018-04-27T06:17:16.565Z,98.9
2018-04-27T06:17:36.742Z,99.1
2018-04-27T06:17:56.978Z,98.9
2018-04-27T06:18:17.138Z,98.9
2018-04-27T06:18:37.310Z,98.9
2018-04-27T06:18:57.488Z,99.5
2018-04-27T06:19:17.659Z,99
2018-04-27T06:19:37.836Z,98.8
2018-04-27T06:19:58.010Z,98.7
2018-04-27T06:20:18.154Z,98.7
2018-04-27T06:20:38.354Z,98.8
2018-04-27T06:20:58.540Z,98.5
2018-04-27T06:21:18.706Z,99
2018-04-27T06:21:38.882Z,98.9
2018-04-27T06:21:59.089Z,98.9
2018-04-27T06:22:19.243Z,98.5
2018-04-27T06:22:39.434Z,98
2018-04-27T06:22:59.578Z,98.1
2018-04-27T06:23:19.739Z,98.1
2018-04-27T06:23:39.892Z,98.2
2018-04-27T06:24:00.052Z,98.3
2018-04-27T06:24:20.251Z,98.5
2018-04-27T06:24:40.511Z,98.5
2018-04-27T06:25:01.015Z,98.1
2018-04-27T06:25:21.360Z,98.2
2018-04-27T06:25:41.704Z,98.1
2018-04-27T06:26:01.781Z,98.3
2018-04-27T06:26:21.981Z,99
2018-04-27T06:26:42.176Z,98.9
2018-04-27T06:27:02.340Z,99
2018-04-27T06:27:22.513Z,99
2018-04-27T06:27:42.664Z,98.7
2018-04-27T06:28:02.838Z,98.8
2018-04-27T06:28:23.006Z,98.4
2018-04-27T06:28:43.183Z,98.4
2018-04-27T06:29:03.354Z,98.5
2018-04-27T06:29:23.532Z,98.1
2018-04-27T06:29:43.691Z,98.5
2018-04-27T06:30:03.844Z,98.4
2018-04-27T06:30:23.997Z,98.9
2018-04-27T06:30:44.151Z,98.7
2018-04-27T06:31:04.365Z,98.8
2018-04-27T06:31:24.540Z,98.6
2018-04-27T06:31:44.732Z,98.4
2018-04-27T06:32:04.967Z,98.2
2018-04-27T06:32:25.126Z,97.5
2018-04-27T06:32:45.281Z,97.9
2018-04-27T06:33:05.467Z,97.4
2018-04-27T06:33:25.640Z,97.4
2018-04-27T06:33:45.795Z,98
2018-04-27T06:34:06.014Z,97.8
2018-04-27T06:34:26.193Z,98.4
2018-04-27T06:34:47.055Z,98.1
2018-04-27T06:35:07.244Z,97.7
2018-04-27T06:35:27.581Z,97.9
2018-04-27T06:35:47.752Z,97.8
2018-04-27T06:36:07.950Z,97
2018-04-27T06:36:28.123Z,96.8
2018-04-27T06:36:48.308Z,97.1
2018-04-27T06:37:08.497Z,97.2
2018-04-27T06:37:28.662Z,97
2018-04-27T06:37:48.785Z,96.9
2018-04-27T06:38:08.966Z,97.1
2018-04-27T06:38:29.135Z,96.7
2018-04-27T06:38:49.332Z,96.6
2018-04-27T06:39:09.495Z,96.5
2018-04-27T06:39:29.726Z,96.7
2018-04-27T06:39:49.840Z,96.8
2018-04-27T06:40:10.008Z,96.8
2018-04-27T06:40:30.180Z,96.8
2018-04-27T06:40:50.358Z,96.8
2018-04-27T06:41:10.507Z,96.7
2018-04-27T06:41:30.649Z,96.6
2018-04-27T06:41:50.854Z,96.1
2018-04-27T06:42:11.016Z,95.3
2018-04-27T06:42:31.178Z,95.3
2018-04-27T06:42:51.353Z,95.6
2018-04-27T06:43:11.519Z,96.1
2018-04-27T06:43:31.685Z,96.2
2018-04-27T06:43:51.825Z,96.3
2018-04-27T06:44:12.027Z,96
2018-04-27T06:44:32.204Z,96.1
2018-04-27T06:44:52.401Z,96.4
2018-04-27T06:45:12.589Z,96.4
2018-04-27T06:45:32.780Z,96.6
2018-04-27T06:45:52.993Z,96.1
2018-04-27T06:46:13.161Z,96.8
2018-04-27T06:46:33.340Z,96.6
2018-04-27T06:46:53.535Z,96.4
2018-04-27T06:47:13.683Z,96.3
2018-04-27T06:47:33.906Z,96.9
2018-04-27T06:47:54.068Z,96.9
2018-04-27T06:48:14.245Z,96.7
2018-04-27T06:48:34.423Z,96.5
2018-04-27T06:48:54.603Z,96.2
2018-04-27T06:49:14.770Z,96.1
2018-04-27T06:49:34.955Z,96.2
2018-04-27T06:49:55.182Z,96.1
2018-04-27T06:50:15.358Z,96.1
2018-04-27T06:50:35.559Z,95.6
2018-04-27T06:50:55.731Z,95.6
2018-04-27T06:51:15.927Z,95.6
2018-04-27T06:51:36.114Z,96
2018-04-27T06:51:56.256Z,96.1
2018-04-27T06:52:16.436Z,95.8
2018-04-27T06:52:36.579Z,96.6
2018-04-27T06:52:56.730Z,96.1
2018-04-27T06:53:16.900Z,95.5
2018-04-27T06:53:37.072Z,95.8
2018-04-27T06:53:57.257Z,96.5
2018-04-27T06:54:17.469Z,96
2018-04-27T06:54:37.624Z,95.5
2018-04-27T06:54:57.808Z,95
2018-04-27T06:55:17.964Z,95.1
2018-04-27T06:55:38.159Z,95.1
2018-04-27T06:55:58.327Z,95.6
2018-04-27T06:56:18.554Z,95.6
2018-04-27T06:56:38.703Z,95.9
2018-04-27T06:56:58.907Z,96.4
2018-04-27T06:57:19.109Z,95.9
2018-04-27T06:57:39.287Z,96
2018-04-27T06:57:59.501Z,96.2
2018-04-27T06:58:19.898Z,96
2018-04-27T06:58:40.150Z,95.6
2018-04-27T06:59:00.515Z,95
2018-04-27T06:59:20.892Z,94.5
2018-04-27T06:59:41.112Z,94.4
2018-04-27T07:00:01.366Z,94.3
2018-04-27T07:00:21.710Z,94.6
2018-04-27T07:00:41.904Z,94.2
2018-04-27T07:01:02.137Z,93.8
2018-04-27T07:01:22.308Z,94.1
2018-04-27T07:01:42.481Z,94.7
2018-04-27T07:02:02.673Z,95.4
2018-04-27T07:02:22.900Z,95.4
2018-04-27T07:02:42.875Z,95.4
2018-04-27T07:03:03.153Z,94.9
2018-04-27T07:03:23.408Z,94.6
2018-04-27T07:03:43.550Z,94.2
2018-04-27T07:04:03.765Z,94.2
2018-04-27T07:04:24.005Z,94.4
2018-04-27T07:04:44.191Z,94.6
2018-04-27T07:05:04.378Z,94.9
2018-04-27T07:05:24.590Z,94.5
2018-04-27T07:05:45.007Z,94.9
2018-04-27T07:06:05.264Z,94.2
2018-04-27T07:06:25.602Z,94.2
2018-04-27T07:06:45.815Z,93.7
2018-04-27T07:07:06.015Z,93.7
2018-04-27T07:07:26.216Z,93.9
2018-04-27T07:07:46.389Z,93.7
2018-04-27T07:08:06.567Z,94.6
2018-04-27T07:08:26.727Z,94.1
2018-04-27T07:08:46.898Z,94.6
2018-04-27T07:09:07.071Z,94.5
2018-04-27T07:09:27.222Z,95.1
2018-04-27T07:09:47.502Z,94.7
2018-04-27T07:10:07.676Z,95.4
2018-04-27T07:10:27.963Z,95
2018-04-27T07:10:48.195Z,95.5
2018-04-27T07:11:08.360Z,95.2
2018-04-27T07:11:28.574Z,95.5
2018-04-27T07:11:48.770Z,95.3
2018-04-27T07:12:08.972Z,94.7
2018-04-27T07:12:29.150Z,94.8
2018-04-27T07:12:49.334Z,94.7
2018-04-27T07:13:09.593Z,94.8
2018-04-27T07:13:29.783Z,94.1
2018-04-27T07:13:49.951Z,94.3
2018-04-27T07:14:10.135Z,94.5
2018-04-27T07:14:30.322Z,94.4
2018-04-27T07:14:50.501Z,94.2
2018-04-27T07:15:10.681Z,94.6
2018-04-27T07:15:30.863Z,94.5
2018-04-27T07:15:51.096Z,94.6
2018-04-27T07:16:11.274Z,94.1
2018-04-27T07:16:31.470Z,94.5
2018-04-27T07:16:51.765Z,93.9
2018-04-27T07:17:12.343Z,93.8
2018-04-27T07:17:32.465Z,93.7
2018-04-27T07:17:52.776Z,94
2018-04-27T07:18:13.142Z,93.8
2018-04-27T07:18:33.390Z,93.9
2018-04-27T07:18:53.602Z,94.3
2018-04-27T07:19:13.763Z,93.8
2018-04-27T07:19:33.962Z,93.7
2018-04-27T07:19:54.113Z,93.7
2018-04-27T07:20:14.283Z,93.4
2018-04-27T07:20:34.540Z,92.9
2018-04-27T07:20:54.859Z,92.9
2018-04-27T07:21:15.104Z,93.1
2018-04-27T07:21:35.488Z,93.5
2018-04-27T07:21:55.811Z,93.1
2018-04-27T07:22:16.000Z,93.5
2018-04-27T07:22:36.262Z,93.2
2018-04-27T07:22:56.584Z,92.6
2018-04-27T07:23:16.986Z,91.4
2018-04-27T07:23:37.224Z,91
2018-04-27T07:23:57.486Z,91
2018-04-27T07:24:17.680Z,91.4
2018-04-27T07:24:37.889Z,92
2018-04-27T07:24:58.085Z,91.8
2018-04-27T07:25:18.430Z,92
2018-04-27T07:25:38.620Z,92.4
2018-04-27T07:25:58.831Z,92
2018-04-27T07:26:18.959Z,92.5
2018-04-27T07:26:39.154Z,92.3
2018-04-27T07:26:59.352Z,92.8
2018-04-27T07:27:19.657Z,92.9
2018-04-27T07:27:39.966Z,93.1
2018-04-27T07:28:00.239Z,92.7
2018-04-27T07:28:20.564Z,92.5
2018-04-27T07:28:40.756Z,93.3
2018-04-27T07:29:00.930Z,92.1
2018-04-27T07:29:21.136Z,92.5
2018-04-27T07:29:41.321Z,92.4
2018-04-27T07:30:01.547Z,92.5
2018-04-27T07:30:21.784Z,92.3
2018-04-27T07:30:41.956Z,92.3
2018-04-27T07:31:02.130Z,91.5
2018-04-27T07:31:22.315Z,91.7
2018-04-27T07:31:42.574Z,90.9
2018-04-27T07:32:02.872Z,90.5
2018-04-27T07:32:23.054Z,90.6
2018-04-27T07:32:43.248Z,90.8
2018-04-27T07:33:03.581Z,90.9
2018-04-27T07:33:23.875Z,90.9
2018-04-27T07:33:44.055Z,91
2018-04-27T07:34:04.253Z,91.2
2018-04-27T07:34:24.443Z,91.2
2018-04-27T07:34:44.828Z,90.9
2018-04-27T07:35:05.050Z,90.5
2018-04-27T07:35:25.224Z,90.3
2018-04-27T07:35:45.446Z,90.6
2018-04-27T07:36:05.615Z,90.5
2018-04-27T07:36:25.785Z,90.5
2018-04-27T07:36:46.029Z,89.4
2018-04-27T07:37:06.193Z,88.9
2018-04-27T07:37:26.362Z,89.4
2018-04-27T07:37:46.501Z,89.5
2018-04-27T07:38:06.817Z,90.4
2018-04-27T07:38:27.090Z,89.4
2018-04-27T07:38:47.294Z,89.7
2018-04-27T07:39:07.532Z,89.7
2018-04-27T07:39:27.763Z,89.6
2018-04-27T07:39:48.026Z,89.5
2018-04-27T07:40:08.267Z,90
2018-04-27T07:40:28.577Z,90.5
2018-04-27T07:40:48.795Z,90.2
2018-04-27T07:41:09.037Z,90
2018-04-27T07:41:29.246Z,90.5
2018-04-27T07:41:49.477Z,90.3
2018-04-27T07:42:09.718Z,89.9
2018-04-27T07:42:29.919Z,89.7
2018-04-27T07:42:50.104Z,89.2
2018-04-27T07:43:10.282Z,89.4
2018-04-27T07:43:30.451Z,89.8
2018-04-27T07:43:50.637Z,89.8
2018-04-27T07:44:11.011Z,89.5
2018-04-27T07:44:31.476Z,89.7
2018-04-27T07:44:51.673Z,89.6
2018-04-27T07:45:12.041Z,89.8
2018-04-27T07:45:32.328Z,89.5
2018-04-27T07:45:52.598Z,89.7
2018-04-27T07:46:12.833Z,89.2
2018-04-27T07:46:33.071Z,89.4
2018-04-27T07:46:53.252Z,89.3
2018-04-27T07:47:13.430Z,89.3
2018-04-27T07:47:33.650Z,89.4
2018-04-27T07:47:53.844Z,89.5
2018-04-27T07:48:14.142Z,89.2
2018-04-27T07:48:34.365Z,89.1
2018-04-27T07:48:54.548Z,89.2
2018-04-27T07:49:14.839Z,89.6
2018-04-27T07:49:35.069Z,88.8
2018-04-27T07:49:55.307Z,89
2018-04-27T07:50:15.609Z,88.6
2018-04-27T07:50:35.900Z,88.3
2018-04-27T07:50:56.087Z,88.3
2018-04-27T07:51:16.268Z,88.3
2018-04-27T07:51:36.464Z,88.8
2018-04-27T07:51:56.700Z,89.8
2018-04-27T07:52:16.993Z,89.7
2018-04-27T07:52:37.354Z,89.6
2018-04-27T07:52:57.663Z,89.6
2018-04-27T07:53:17.929Z,89.7
2018-04-27T07:53:39.220Z,89
2018-04-27T07:53:59.385Z,88.4
2018-04-27T07:54:19.665Z,87.9
2018-04-27T07:54:39.934Z,87.8
2018-04-27T07:55:00.248Z,87.7
2018-04-27T07:55:20.543Z,88.1
2018-04-27T07:55:40.692Z,88
2018-04-27T07:56:00.867Z,88.4
2018-04-27T07:56:21.059Z,88.5
2018-04-27T07:56:41.238Z,88.4
2018-04-27T07:57:01.461Z,88.9
2018-04-27T07:57:21.683Z,88.7
2018-04-27T07:57:41.957Z,88.4
2018-04-27T07:58:02.148Z,88.8
2018-04-27T07:58:22.437Z,88.9
2018-04-27T07:58:42.711Z,89.4
2018-04-27T07:59:03.036Z,89.3
2018-04-27T07:59:23.272Z,89.5
2018-04-27T07:59:43.742Z,89.1
2018-04-27T08:00:04.079Z,88.3
2018-04-27T08:00:24.224Z,87.9
2018-04-27T08:00:44.424Z,87.7
2018-04-27T08:01:04.624Z,87.7
2018-04-27T08:01:24.808Z,87.6
2018-04-27T08:01:45.000Z,87.8
2018-04-27T08:02:05.303Z,88.7
2018-04-27T08:02:25.750Z,88.7
2018-04-27T08:02:45.987Z,88.8
2018-04-27T08:03:06.178Z,89.6
2018-04-27T08:03:26.385Z,89.6
2018-04-27T08:03:46.590Z,89.5
2018-04-27T08:04:06.761Z,89.3
2018-04-27T08:04:26.919Z,89.6
2018-04-27T08:04:47.072Z,89.3
2018-04-27T08:05:07.268Z,89.3
2018-04-27T08:05:27.419Z,89.3
2018-04-27T08:05:47.609Z,89.5
2018-04-27T08:06:07.788Z,89.5
2018-04-27T08:06:27.996Z,89.5
2018-04-27T08:06:48.560Z,89.4
2018-04-27T08:07:09.059Z,89.5
2018-04-27T08:07:29.331Z,89.5
2018-04-27T08:07:49.562Z,88.9
2018-04-27T08:08:09.915Z,88.6
2018-04-27T08:08:30.158Z,88
2018-04-27T08:08:50.536Z,87.2
2018-04-27T08:09:10.996Z,86.4
2018-04-27T08:09:31.176Z,86.1
2018-04-27T08:09:51.470Z,85.5
2018-04-27T08:10:11.892Z,85.7
2018-04-27T08:10:32.342Z,86.4
2018-04-27T08:10:52.730Z,86.5
2018-04-27T08:11:13.067Z,86.5
2018-04-27T08:11:33.314Z,86.9
2018-04-27T08:11:53.655Z,87.1
2018-04-27T08:12:13.890Z,87.3
2018-04-27T08:12:34.075Z,87.3
2018-04-27T08:12:54.320Z,87.3
2018-04-27T08:13:14.603Z,87
2018-04-27T08:13:34.959Z,87
2018-04-27T08:13:55.211Z,87.1
2018-04-27T08:14:15.605Z,87.2
2018-04-27T08:14:35.812Z,87
2018-04-27T08:14:56.119Z,86.4
2018-04-27T08:15:16.420Z,86.6
2018-04-27T08:15:36.592Z,86.4
2018-04-27T08:15:56.925Z,86.5
2018-04-27T08:16:17.249Z,86.6
2018-04-27T08:16:37.467Z,86.7
2018-04-27T08:16:57.858Z,86.4
2018-04-27T08:17:18.145Z,86.8
2018-04-27T08:17:38.450Z,86.3
2018-04-27T08:17:58.811Z,86.4
2018-04-27T08:18:19.169Z,86.1
2018-04-27T08:18:39.410Z,86.6
2018-04-27T08:18:59.822Z,87.2
2018-04-27T08:19:20.165Z,86.7
2018-04-27T08:19:40.480Z,85.5
2018-04-27T08:20:00.736Z,86.3
2018-04-27T08:20:20.933Z,85.5
2018-04-27T08:20:41.157Z,84.9
2018-04-27T08:21:01.550Z,84.9
2018-04-27T08:21:21.814Z,85.3
2018-04-27T08:21:42.022Z,85.3
2018-04-27T08:22:02.398Z,85.6
2018-04-27T08:22:22.821Z,85
2018-04-27T08:22:43.218Z,85
2018-04-27T08:23:03.509Z,85.2
2018-04-27T08:23:23.778Z,84.3
2018-04-27T08:23:43.932Z,83.8
2018-04-27T08:24:04.074Z,84.2
2018-04-27T08:24:24.517Z,84.4
2018-04-27T08:24:44.914Z,84.7
2018-04-27T08:25:05.309Z,85.3
2018-04-27T08:25:25.489Z,85.7
2018-04-27T08:25:45.760Z,85.5
2018-04-27T08:26:06.093Z,85.7
2018-04-27T08:26:26.440Z,86.1
2018-04-27T08:26:46.749Z,85.2
2018-04-27T08:27:06.972Z,84.8
2018-04-27T08:27:27.343Z,85.2
2018-04-27T08:27:47.798Z,85.1
2018-04-27T08:28:08.179Z,84.5
2018-04-27T08:28:28.544Z,83.7
2018-04-27T08:28:48.919Z,82.3
2018-04-27T08:29:09.281Z,82.8
2018-04-27T08:29:29.694Z,82.5
2018-04-27T08:29:49.911Z,81.3
2018-04-27T08:30:10.279Z,81.4
2018-04-27T08:30:30.669Z,82.3
2018-04-27T08:30:51.001Z,82.8
2018-04-27T08:31:11.213Z,83.6
2018-04-27T08:31:31.612Z,83.4
2018-04-27T08:31:51.848Z,83.8
2018-04-27T08:32:12.240Z,83.1
2018-04-27T08:32:32.480Z,82.8
2018-04-27T08:32:52.885Z,83.1
2018-04-27T08:33:13.284Z,83.6
2018-04-27T08:33:33.625Z,82.9
2018-04-27T08:33:53.996Z,83.2
2018-04-27T08:34:14.271Z,83.4
2018-04-27T08:34:34.621Z,83.6
2018-04-27T08:34:54.914Z,83.4
2018-04-27T08:35:15.170Z,83.4
2018-04-27T08:35:35.639Z,83.6
2018-04-27T08:35:55.995Z,83.5
2018-04-27T08:36:16.404Z,83.5
2018-04-27T08:36:36.569Z,83.5
2018-04-27T08:36:57.017Z,83
2018-04-27T08:37:17.252Z,83.8
2018-04-27T08:37:37.623Z,83.9
2018-04-27T08:37:58.127Z,84
2018-04-27T08:38:18.598Z,83.3
2018-04-27T08:38:38.944Z,82.7
2018-04-27T08:38:59.248Z,83.1
2018-04-27T08:39:19.606Z,82.9
2018-04-27T08:39:39.924Z,83
2018-04-27T08:40:00.255Z,83.1
2018-04-27T08:40:20.581Z,83
2018-04-27T08:40:40.821Z,83
2018-04-27T08:41:01.143Z,83.2
2018-04-27T08:41:21.554Z,82.8
2018-04-27T08:41:41.848Z,82.5
2018-04-27T08:42:02.305Z,82.1
2018-04-27T08:42:22.610Z,81.7
2018-04-27T08:42:42.999Z,81.6
2018-04-27T08:43:03.337Z,81.9
2018-04-27T08:43:23.591Z,81.8
2018-04-27T08:43:43.886Z,82.1
2018-04-27T08:44:04.234Z,82.2
2018-04-27T08:44:24.507Z,82.2
2018-04-27T08:44:44.869Z,82.3
2018-04-27T08:45:05.123Z,82.9
2018-04-27T08:45:25.353Z,83.6
2018-04-27T08:45:45.748Z,83.8
2018-04-27T08:46:06.110Z,83.2
2018-04-27T08:46:26.497Z,82.9
2018-04-27T08:46:47.028Z,82.4
2018-04-27T08:47:07.494Z,81.6
2018-04-27T08:47:27.838Z,82.5
2018-04-27T08:47:48.162Z,82.4
2018-04-27T08:48:08.586Z,82.9
2018-04-27T08:48:29.075Z,83.1
2018-04-27T08:48:49.630Z,82.9
2018-04-27T08:49:10.138Z,82.1
2018-04-27T08:49:30.436Z,81
2018-04-27T08:49:51.911Z,81.1
2018-04-27T08:50:12.451Z,80.6
2018-04-27T08:50:32.946Z,80.9
2018-04-27T08:50:53.326Z,80.4
2018-04-27T08:51:13.767Z,80.7
2018-04-27T08:51:34.027Z,80.6
2018-04-27T08:51:54.487Z,80.8
2018-04-27T08:52:14.813Z,79.4
2018-04-27T08:52:35.145Z,79.4
2018-04-27T08:52:55.562Z,80.2
2018-04-27T08:53:15.933Z,79.8
2018-04-27T08:53:36.369Z,80.2
2018-04-27T08:53:56.755Z,79.3
2018-04-27T08:54:17.190Z,79
2018-04-27T08:54:37.544Z,78.5
2018-04-27T08:54:57.970Z,78.9
2018-04-27T08:55:18.349Z,78.9
2018-04-27T08:55:38.997Z,79.4
2018-04-27T08:55:59.407Z,77.1
2018-04-27T08:56:19.676Z,77.9
2018-04-27T08:56:40.131Z,78.3
2018-04-27T08:57:00.489Z,78.4
2018-04-27T08:57:20.942Z,78.2
2018-04-27T08:57:41.296Z,77.4
2018-04-27T08:58:01.669Z,77.6
2018-04-27T08:58:22.112Z,77.8
2018-04-27T08:58:42.425Z,77.8
2018-04-27T08:59:02.884Z,77.9
2018-04-27T08:59:23.239Z,76.8
2018-04-27T08:59:43.632Z,77.1
2018-04-27T09:00:03.932Z,76.9
2018-04-27T09:00:24.423Z,76.2
2018-04-27T09:00:44.847Z,75.6
2018-04-27T09:01:05.335Z,76.3
2018-04-27T09:01:25.680Z,76.3
2018-04-27T09:01:46.004Z,76.8
2018-04-27T09:02:06.333Z,77
2018-04-27T09:02:26.662Z,77.1
2018-04-27T09:02:47.110Z,77.3
2018-04-27T09:03:07.521Z,76.8
2018-04-27T09:03:27.974Z,77
2018-04-27T09:03:48.274Z,77.1
2018-04-27T09:04:08.759Z,77
2018-04-27T09:04:29.023Z,76.7
2018-04-27T09:04:49.378Z,76.3
2018-04-27T09:05:09.739Z,76.6
2018-04-27T09:05:30.198Z,76.3
2018-04-27T09:05:50.612Z,76.3
2018-04-27T09:06:11.054Z,76.7
2018-04-27T09:06:31.813Z,78.3
2018-04-27T09:06:52.224Z,76.9